Whitmer, West Virginia
Current Conditions -  °F | °C
As of 12:51 PM on Thursday 29 Jan 2015 (Local Time) from KEKN Reporting Station
Light Rain Light Rain  
Wind Chill: 32°   Ceiling: 4700
Heat Index: 39°   Visibility: 8mi
Dew Point: 26°   Wind: 12mph
Humidity: 60%   Direction: 170°S
Pressure: 29.94"   Gusts: NA
Location:  38.81°N, 79.55°W
Report Text: KEKN 291751Z AUTO 17010KT 8SM -RA BKN047 OVC055 04/M03 A2994 RMK AO2 RAB29 SLP166 P0000 60000 T00391033 10050 21089 58034 TSNO
Loading
Personal Weather Stations






























Interactive Weather Map New forecast layout! Learn more

10-Day Weather Forecast

Advertisements
Track Severe Weather on mobile